Faust, Canada
Current Conditions -  °F | °C
As of 6:45 PM on Tuesday 25 Nov 2014 (Local Time) from CYZH Reporting Station
Light Snow Light Snow  
Wind Chill:   Ceiling: 3700
Heat Index: 10°   Visibility: 6mi
Dew Point:   Wind: 7mph
Humidity: 92%   Direction: 120°ESE
Pressure: 30.21"   Gusts: NA
Location:  55.32°N, 115.72°W
Report Text: CYZH 260145Z AUTO 12006KT 6SM -SN BKN037 OVC080 M12/M13 A3021 RMK SLP276
Loading
Personal Weather Stations






























Interactive Weather Map New forecast layout! Learn more

10-Day Weather Forecast

Advertisements
Track Severe Weather on mobile